Time;durP1;ratioP1;P1;durP2;ratioP2;P2;SDS_P1;SDS_P2;PMS_P1;PMS_P2;Temp;Humidity;BMP_temperature;BMP_pressure;BME280_temperature;BME280_humidity;BME280_pressure;Samples;Min_cycle;Max_cycle;Signal;HPM_P1;HPM_P2
2022/12/16 00:00:33;;;;;;;43.83;24.75;;;;;;;0.40;100.00;99906.89;1870825;75;21464;-85
2022/12/16 00:03:00;;;;;;;40.70;25.30;;;;;;;0.35;100.00;99912.42;1797128;78;21363;-85
2022/12/16 00:05:28;;;;;;;39.60;23.60;;;;;;;0.31;100.00;99910.95;1799992;78;21035;-85
2022/12/16 00:07:56;;;;;;;36.48;21.20;;;;;;;0.30;100.00;99909.27;1801189;79;20980;-85
2022/12/16 00:10:24;;;;;;;36.65;22.95;;;;;;;0.42;100.00;99915.95;1802943;78;21004;-86
2022/12/16 00:12:51;;;;;;;39.48;23.20;;;;;;;0.41;100.00;99923.41;1773694;79;21054;-84
2022/12/16 00:15:18;;;;;;;35.00;21.68;;;;;;;0.36;100.00;99928.94;1786376;78;21083;-86
2022/12/16 00:17:44;;;;;;;32.63;20.43;;;;;;;0.31;100.00;99919.23;1804537;79;20886;-85
2022/12/16 00:20:11;;;;;;;34.00;20.65;;;;;;;0.34;100.00;99920.36;1773833;79;21056;-80
2022/12/16 00:22:39;;;;;;;32.63;21.85;;;;;;;0.48;100.00;99929.92;1800934;79;21087;-86
2022/12/16 00:25:08;;;;;;;32.45;21.55;;;;;;;0.48;100.00;99928.61;1801177;79;21015;-81
2022/12/16 00:27:35;;;;;;;34.58;22.52;;;;;;;0.47;100.00;99928.27;1801048;79;21141;-86
2022/12/16 00:30:01;;;;;;;34.18;20.52;;;;;;;0.45;100.00;99915.77;1801646;78;21304;-85
2022/12/16 00:32:30;;;;;;;32.78;21.52;;;;;;;0.49;100.00;99919.38;1803743;79;20961;-82
2022/12/16 00:34:56;;;;;;;30.43;19.75;;;;;;;0.63;100.00;99916.33;1802038;79;21044;-79
2022/12/16 00:37:23;;;;;;;33.05;21.60;;;;;;;0.63;99.94;99920.25;1803071;78;21118;-80
2022/12/16 00:39:49;;;;;;;34.75;22.58;;;;;;;0.58;100.00;99912.25;1800887;79;21945;-77
2022/12/16 00:42:16;;;;;;;37.73;22.80;;;;;;;0.55;100.00;99913.73;1801793;79;20995;-77
2022/12/16 00:44:43;;;;;;;34.05;20.77;;;;;;;0.53;100.00;99918.23;1774917;79;21062;-78
2022/12/16 00:47:09;;;;;;;31.52;20.37;;;;;;;0.68;100.00;99919.49;1802910;79;21067;-79
2022/12/16 00:49:36;;;;;;;34.25;21.20;;;;;;;0.84;100.00;99920.62;1799496;79;21717;-78
2022/12/16 00:52:03;;;;;;;31.77;21.07;;;;;;;0.88;100.00;99926.02;1804436;79;21051;-78
2022/12/16 00:54:30;;;;;;;32.17;20.70;;;;;;;0.91;100.00;99925.83;1801558;77;21038;-76
2022/12/16 00:56:56;;;;;;;31.30;20.27;;;;;;;0.92;100.00;99925.70;1826582;78;21066;-77
2022/12/16 00:59:24;;;;;;;32.17;20.20;;;;;;;1.03;100.00;99922.86;1834203;77;21048;-80
2022/12/16 01:01:52;;;;;;;30.27;20.77;;;;;;;1.18;99.40;99920.05;1834597;77;21063;-80
2022/12/16 01:04:19;;;;;;;31.02;20.60;;;;;;;1.21;99.16;99913.75;1834115;77;21232;-82
2022/12/16 01:06:46;;;;;;;32.80;21.68;;;;;;;1.19;99.18;99906.48;1819134;77;21069;-83
2022/12/16 01:09:13;;;;;;;30.70;20.80;;;;;;;1.18;99.36;99899.59;1783661;79;21038;-82
2022/12/16 01:11:40;;;;;;;31.95;20.37;;;;;;;1.19;99.49;99899.94;1811024;79;21032;-80
2022/12/16 01:14:06;;;;;;;28.10;20.23;;;;;;;1.25;98.97;99908.67;1789668;80;21044;-79
2022/12/16 01:16:33;;;;;;;30.02;20.75;;;;;;;1.35;98.46;99917.59;1789962;80;21033;-79
2022/12/16 01:19:00;;;;;;;30.23;21.12;;;;;;;1.36;98.33;99914.02;1786670;80;20973;-78
2022/12/16 01:21:26;;;;;;;31.97;21.00;;;;;;;1.35;98.45;99933.75;1786362;80;20973;-78
2022/12/16 01:23:53;;;;;;;32.48;22.67;;;;;;;1.33;98.39;99934.33;1786387;80;20977;-78
2022/12/16 01:26:20;;;;;;;28.67;20.02;;;;;;;1.30;98.38;99915.75;1785904;80;21578;-78
2022/12/16 01:28:47;;;;;;;31.00;20.92;;;;;;;1.36;98.58;99928.41;1786865;79;21876;-79
2022/12/16 01:31:15;;;;;;;27.27;18.60;;;;;;;1.52;98.00;99934.74;1788705;80;21017;-79
2022/12/16 01:33:46;;;;;;;28.45;20.10;;;;;;;1.50;97.71;99934.02;1789661;80;21000;-78
2022/12/16 01:36:10;;;;;;;29.95;20.90;;;;;;;1.51;98.20;99952.72;1787379;80;20958;-77
2022/12/16 01:38:36;;;;;;;31.05;21.23;;;;;;;1.52;98.09;99947.00;1788568;80;20961;-75
2022/12/16 01:41:03;;;;;;;30.10;20.25;;;;;;;1.51;97.45;99955.81;1788385;80;21551;-76
2022/12/16 01:43:35;;;;;;;27.55;19.98;;;;;;;1.51;97.45;99955.81;1789011;80;20993;-74
2022/12/16 01:46:15;;;;;;;25.77;19.07;;;;;;;1.60;96.68;99956.47;1788457;78;21034;-77
2022/12/16 01:49:02;;;;;;;30.30;21.20;;;;;;;1.58;96.53;99960.98;1786240;80;21631;-76
2022/12/16 01:51:37;;;;;;;31.77;21.85;;;;;;;1.52;96.38;99971.40;1757017;80;20962;-78
2022/12/16 01:54:15;;;;;;;34.27;22.62;;;;;;;1.44;96.23;99972.88;1787041;77;21552;-74
2022/12/16 01:56:45;;;;;;;31.82;20.85;;;;;;;1.35;96.20;99973.02;1817750;79;20973;-77
2022/12/16 01:59:12;;;;;;;28.77;19.77;;;;;;;1.40;96.27;99979.27;1818219;79;21053;-77
2022/12/16 02:01:39;;;;;;;28.83;19.52;;;;;;;1.52;95.89;99979.25;1818496;77;21025;-77
2022/12/16 02:04:06;;;;;;;26.70;20.50;;;;;;;1.54;96.06;99979.98;1795070;77;21002;-79
2022/12/16 02:06:33;;;;;;;30.92;21.27;;;;;;;1.53;96.06;99988.80;1793884;79;21271;-75
2022/12/16 02:09:07;;;;;;;30.80;22.17;;;;;;;1.51;96.03;99985.93;1796871;79;21050;-76
2022/12/16 02:12:12;;;;;;;29.25;20.02;;;;;;;1.46;95.85;99983.60;1798988;79;21109;-76
2022/12/16 02:15:15;;;;;;;26.45;19.62;;;;;;;1.45;95.48;99987.63;1799054;79;21060;-77
2022/12/16 02:17:59;;;;;;;27.40;20.68;;;;;;;1.51;94.83;99974.98;1792234;79;21072;-75
2022/12/16 02:20:43;;;;;;;27.87;19.85;;;;;;;1.48;95.43;99971.72;1800323;78;21296;-76
2022/12/16 02:23:37;;;;;;;33.50;22.17;;;;;;;1.48;95.90;99982.20;1764455;79;21096;-79
2022/12/16 02:26:44;;;;;;;32.70;22.22;;;;;;;1.44;95.53;99984.66;1796863;79;21030;-75
2022/12/16 02:29:50;;;;;;;27.00;19.37;;;;;;;1.36;95.54;99982.08;1796386;79;21041;-79
2022/12/16 02:32:39;;;;;;;30.15;19.73;;;;;;;1.45;95.57;99987.18;1797306;79;21073;-78
2022/12/16 02:35:28;;;;;;;30.57;21.02;;;;;;;1.53;94.98;99980.95;1796987;79;21034;-77
2022/12/16 02:38:22;;;;;;;30.97;20.75;;;;;;;1.44;94.83;99985.97;1797947;78;21037;-80
2022/12/16 02:41:01;;;;;;;29.70;21.37;;;;;;;1.35;95.16;99990.03;1799366;79;21022;-80
2022/12/16 02:43:58;;;;;;;28.57;20.35;;;;;;;1.28;95.26;99981.77;1800542;79;21006;-79
2022/12/16 02:46:30;;;;;;;29.72;20.02;;;;;;;1.33;95.57;99978.37;1797340;79;21041;-76
2022/12/16 02:49:06;;;;;;;27.82;20.27;;;;;;;1.49;95.28;99975.55;1797246;79;21133;-76
2022/12/16 02:51:33;;;;;;;28.62;21.48;;;;;;;1.46;95.19;99970.52;1791999;79;21581;-76
2022/12/16 02:54:00;;;;;;;32.10;21.77;;;;;;;1.43;95.26;99977.73;1798089;77;21572;-75
2022/12/16 02:56:36;;;;;;;26.87;20.82;;;;;;;1.39;95.27;99981.02;1829538;78;21087;-76
2022/12/16 02:59:26;;;;;;;30.52;20.95;;;;;;;1.34;95.19;99983.97;1829889;78;20989;-80
2022/12/16 03:02:01;;;;;;;28.30;18.98;;;;;;;1.37;94.92;99982.46;1829954;78;21080;-79
2022/12/16 03:04:38;;;;;;;25.80;19.15;;;;;;;1.46;94.47;99973.61;1830104;78;21010;-77
2022/12/16 03:07:06;;;;;;;27.45;19.70;;;;;;;1.43;94.69;99971.19;1832118;78;21088;-78
2022/12/16 03:09:34;;;;;;;29.63;21.00;;;;;;;1.40;94.89;99970.94;1831782;78;21048;-78
2022/12/16 03:12:03;;;;;;;27.95;19.00;;;;;;;1.35;94.82;99967.33;1806488;78;21054;-77
2022/12/16 03:14:31;;;;;;;27.77;20.20;;;;;;;1.31;94.98;99967.62;1800218;78;21083;-76
2022/12/16 03:16:58;;;;;;;26.75;18.73;;;;;;;1.37;95.34;99968.52;1815952;78;20978;-77
2022/12/16 03:19:25;;;;;;;25.75;19.07;;;;;;;1.53;95.00;99976.19;1832276;78;21049;-76
2022/12/16 03:22:19;;;;;;;26.60;20.00;;;;;;;1.52;94.71;99971.88;1832352;78;21042;-80
2022/12/16 03:24:47;;;;;;;29.40;22.02;;;;;;;1.48;94.61;99967.80;1788717;78;21595;-82
2022/12/16 03:27:30;;;;;;;27.10;20.48;;;;;;;1.42;94.61;99969.05;1785329;78;21507;-82
2022/12/16 03:30:08;;;;;;;26.25;19.07;;;;;;;1.37;94.66;99967.20;1797718;79;21049;-83
2022/12/16 03:33:03;;;;;;;24.90;18.73;;;;;;;1.43;94.80;99968.57;1850770;77;21022;-84
2022/12/16 03:35:38;;;;;;;27.90;19.85;;;;;;;1.56;94.72;99955.02;1864221;77;21018;-82
2022/12/16 03:38:06;;;;;;;28.20;20.90;;;;;;;1.55;94.95;99962.04;1866121;77;21025;-82
2022/12/16 03:40:32;;;;;;;28.05;20.65;;;;;;;1.54;95.22;99962.97;1866840;75;21241;-82
2022/12/16 03:43:00;;;;;;;28.10;21.33;;;;;;;1.51;94.97;99951.41;1830066;77;20998;-81
2022/12/16 03:45:30;;;;;;;25.82;18.77;;;;;;;1.43;94.54;99952.41;1844498;77;21014;-82
2022/12/16 03:47:58;;;;;;;26.97;20.27;;;;;;;1.42;94.39;99949.41;1830403;77;21034;-81
2022/12/16 03:50:28;;;;;;;28.85;20.92;;;;;;;1.52;94.24;99964.02;1832545;78;20958;-79
2022/12/16 03:52:55;;;;;;;28.38;21.35;;;;;;;1.52;94.27;99971.40;1834106;78;21509;-81
2022/12/16 03:55:22;;;;;;;29.52;21.07;;;;;;;1.45;94.20;99972.78;1833062;77;20994;-84
2022/12/16 03:57:49;;;;;;;31.60;22.20;;;;;;;1.35;94.12;99972.56;1834006;78;21250;-81
2022/12/16 04:00:16;;;;;;;27.77;19.67;;;;;;;1.28;94.19;99973.91;1832527;77;21049;-82
2022/12/16 04:02:43;;;;;;;27.73;19.62;;;;;;;1.31;94.23;99979.41;1830953;77;20973;-77
2022/12/16 04:05:09;;;;;;;25.05;20.88;;;;;;;1.43;94.26;99981.21;1831864;78;21121;-81
2022/12/16 04:07:37;;;;;;;27.50;20.82;;;;;;;1.44;94.26;99980.73;1832141;78;20982;-80
2022/12/16 04:10:05;;;;;;;31.75;23.15;;;;;;;1.36;94.38;99980.77;1833916;78;20950;-81
2022/12/16 04:26:28;;;;;;;34.60;25.82;;;;;;;1.31;93.74;99980.70;1801085;79;21026;-84
2022/12/16 04:28:55;;;;;;;34.73;23.73;;;;;;;1.25;93.77;99975.41;1801055;79;21062;-82
2022/12/16 04:31:22;;;;;;;32.85;22.80;;;;;;;1.22;93.67;99985.24;1800437;79;21176;-85
